ラロトンガ の空港の天気 - METARとTAF

ラロトンガ国際空港 ( NCRG / RAR ) - クック諸島 アバルア (ラロトンガ島)
飛行場実況気象(Metar)
観測時間08/04 12:30 CKT (08/04 22:30 UTC)
風向・風速東 7m/s
視程10km以上
天気現象
なし
気温24℃
湿度83%
気圧1015hPa
METARNCRG 042230Z AUTO 08014KT 9999 NCD 24/21 Q1015
過去の天気等 Google飛行場航空写真 Wunderground天気予報

過去48時間のMETAR

飛行場予報(TAF)
発表時間: 8/04 07:14 CKT (8/04 17:14 UTC)
予報対象時間: 4日8時 CKT ~ 5日8時 CKT
風向・風速東 4m/s
視程10km以上
天気現象弱いしゅう雨
全天の4割程度の雲 雲底高度 240m
全天の8割程度の雲 雲底高度 550m
全天を覆う雲 雲底高度 1220m
4日8時 CKT ~ 4日10時 CKT に 確率 40% で一時的に
視程5000m
天気現象しゅう雨
全天の4割程度の雲 雲底高度 210m
全天の8割程度の雲 雲底高度 460m
4日10時 CKT ~ 4日23時 CKT に一時的に
視程5000m
天気現象雷雨
全天の8割程度の雲 雲底高度 460m
少しの積乱雲 雲底高度 520m
TAF NCRG 041714Z 0418/0518 08008KT 9999 -SHRA SCT008 BKN018 OVC040
PROB40 TEMPO 0418/0420 5000 SHRA SCT007 BKN015
TEMPO 0420/0509 5000 TSRA BKN015 FEW017CB